sensor_id;sensor_type;location;lat;lon;timestamp;P1;durP1;ratioP1;P2;durP2;ratioP2
40314;SDS011;26021;45.640;11.302;2023-04-06T00:02:23;13.65;;;7.97;;
40314;SDS011;26021;45.640;11.302;2023-04-06T00:04:49;13.30;;;7.90;;
40314;SDS011;26021;45.640;11.302;2023-04-06T00:07:15;11.60;;;7.88;;
40314;SDS011;26021;45.640;11.302;2023-04-06T00:09:40;12.63;;;8.52;;
40314;SDS011;26021;45.640;11.302;2023-04-06T00:12:06;12.30;;;8.45;;
40314;SDS011;26021;45.640;11.302;2023-04-06T00:14:31;11.93;;;8.90;;
40314;SDS011;26021;45.640;11.302;2023-04-06T00:16:56;11.38;;;8.15;;
40314;SDS011;26021;45.640;11.302;2023-04-06T00:19:22;10.23;;;7.50;;
40314;SDS011;26021;45.640;11.302;2023-04-06T00:21:47;13.07;;;8.43;;
40314;SDS011;26021;45.640;11.302;2023-04-06T00:24:13;12.95;;;8.35;;
40314;SDS011;26021;45.640;11.302;2023-04-06T00:26:38;11.48;;;8.18;;
40314;SDS011;26021;45.640;11.302;2023-04-06T00:29:04;11.68;;;8.35;;
40314;SDS011;26021;45.640;11.302;2023-04-06T00:31:29;9.98;;;8.27;;
40314;SDS011;26021;45.640;11.302;2023-04-06T00:33:55;11.57;;;8.43;;
40314;SDS011;26021;45.640;11.302;2023-04-06T00:36:20;12.25;;;8.65;;
40314;SDS011;26021;45.640;11.302;2023-04-06T00:38:46;11.80;;;8.77;;
40314;SDS011;26021;45.640;11.302;2023-04-06T00:41:11;11.52;;;8.18;;
40314;SDS011;26021;45.640;11.302;2023-04-06T00:43:36;12.15;;;8.32;;
40314;SDS011;26021;45.640;11.302;2023-04-06T00:46:02;13.82;;;8.70;;
40314;SDS011;26021;45.640;11.302;2023-04-06T00:48:27;12.68;;;7.82;;
40314;SDS011;26021;45.640;11.302;2023-04-06T00:50:55;9.50;;;8.02;;
40314;SDS011;26021;45.640;11.302;2023-04-06T00:53:20;14.38;;;9.10;;
40314;SDS011;26021;45.640;11.302;2023-04-06T00:55:46;10.60;;;8.38;;
40314;SDS011;26021;45.640;11.302;2023-04-06T00:58:12;13.18;;;8.07;;
40314;SDS011;26021;45.640;11.302;2023-04-06T01:00:37;11.40;;;7.88;;
40314;SDS011;26021;45.640;11.302;2023-04-06T01:03:02;10.82;;;8.73;;
40314;SDS011;26021;45.640;11.302;2023-04-06T01:05:32;13.15;;;9.02;;
40314;SDS011;26021;45.640;11.302;2023-04-06T01:07:59;10.43;;;8.18;;
40314;SDS011;26021;45.640;11.302;2023-04-06T01:10:26;10.02;;;8.25;;
40314;SDS011;26021;45.640;11.302;2023-04-06T01:12:52;13.23;;;9.32;;
40314;SDS011;26021;45.640;11.302;2023-04-06T01:15:17;11.43;;;9.10;;
40314;SDS011;26021;45.640;11.302;2023-04-06T01:17:44;13.38;;;9.00;;
40314;SDS011;26021;45.640;11.302;2023-04-06T01:20:10;11.90;;;9.10;;
40314;SDS011;26021;45.640;11.302;2023-04-06T01:22:35;11.10;;;8.90;;
40314;SDS011;26021;45.640;11.302;2023-04-06T01:25:01;13.90;;;8.40;;
40314;SDS011;26021;45.640;11.302;2023-04-06T01:27:26;10.45;;;8.45;;
40314;SDS011;26021;45.640;11.302;2023-04-06T01:29:53;10.80;;;8.02;;
40314;SDS011;26021;45.640;11.302;2023-04-06T01:32:18;10.95;;;9.02;;
40314;SDS011;26021;45.640;11.302;2023-04-06T01:34:44;15.38;;;9.07;;
40314;SDS011;26021;45.640;11.302;2023-04-06T01:37:09;12.27;;;8.73;;
40314;SDS011;26021;45.640;11.302;2023-04-06T01:39:35;11.05;;;8.50;;
40314;SDS011;26021;45.640;11.302;2023-04-06T01:42:00;11.15;;;8.38;;
40314;SDS011;26021;45.640;11.302;2023-04-06T01:44:26;10.98;;;9.00;;
40314;SDS011;26021;45.640;11.302;2023-04-06T01:46:51;12.63;;;9.00;;
40314;SDS011;26021;45.640;11.302;2023-04-06T01:49:17;11.65;;;9.00;;
40314;SDS011;26021;45.640;11.302;2023-04-06T01:51:42;14.57;;;10.10;;
40314;SDS011;26021;45.640;11.302;2023-04-06T01:54:08;13.80;;;9.15;;
40314;SDS011;26021;45.640;11.302;2023-04-06T01:56:33;15.52;;;9.75;;
40314;SDS011;26021;45.640;11.302;2023-04-06T01:58:59;11.02;;;8.93;;
40314;SDS011;26021;45.640;11.302;2023-04-06T02:01:24;15.02;;;10.23;;
40314;SDS011;26021;45.640;11.302;2023-04-06T02:03:50;17.05;;;10.10;;
40314;SDS011;26021;45.640;11.302;2023-04-06T02:06:15;11.57;;;9.52;;
40314;SDS011;26021;45.640;11.302;2023-04-06T02:08:41;17.25;;;10.38;;
40314;SDS011;26021;45.640;11.302;2023-04-06T02:11:06;16.40;;;10.43;;
40314;SDS011;26021;45.640;11.302;2023-04-06T02:13:33;16.25;;;11.00;;
40314;SDS011;26021;45.640;11.302;2023-04-06T02:15:58;12.70;;;9.10;;
40314;SDS011;26021;45.640;11.302;2023-04-06T02:18:23;12.25;;;8.90;;
40314;SDS011;26021;45.640;11.302;2023-04-06T02:20:49;13.38;;;10.02;;
40314;SDS011;26021;45.640;11.302;2023-04-06T02:23:15;13.90;;;8.90;;
40314;SDS011;26021;45.640;11.302;2023-04-06T02:25:40;11.88;;;8.80;;
40314;SDS011;26021;45.640;11.302;2023-04-06T02:28:06;12.05;;;8.95;;
40314;SDS011;26021;45.640;11.302;2023-04-06T02:30:31;13.57;;;9.55;;
40314;SDS011;26021;45.640;11.302;2023-04-06T02:32:57;13.05;;;9.15;;
40314;SDS011;26021;45.640;11.302;2023-04-06T02:35:25;10.73;;;9.52;;
40314;SDS011;26021;45.640;11.302;2023-04-06T02:37:50;13.10;;;9.77;;
40314;SDS011;26021;45.640;11.302;2023-04-06T02:40:16;11.93;;;9.45;;
40314;SDS011;26021;45.640;11.302;2023-04-06T02:42:41;11.32;;;9.00;;
40314;SDS011;26021;45.640;11.302;2023-04-06T02:45:07;10.77;;;9.15;;
40314;SDS011;26021;45.640;11.302;2023-04-06T02:47:33;12.38;;;9.25;;
40314;SDS011;26021;45.640;11.302;2023-04-06T02:49:58;13.43;;;9.20;;
40314;SDS011;26021;45.640;11.302;2023-04-06T02:52:24;15.57;;;9.80;;
40314;SDS011;26021;45.640;11.302;2023-04-06T02:54:49;13.60;;;9.48;;
40314;SDS011;26021;45.640;11.302;2023-04-06T02:57:16;11.85;;;9.13;;
40314;SDS011;26021;45.640;11.302;2023-04-06T02:59:41;12.02;;;9.18;;
40314;SDS011;26021;45.640;11.302;2023-04-06T03:02:07;11.82;;;9.27;;
40314;SDS011;26021;45.640;11.302;2023-04-06T03:04:32;11.52;;;9.02;;
40314;SDS011;26021;45.640;11.302;2023-04-06T03:06:58;12.63;;;8.77;;
40314;SDS011;26021;45.640;11.302;2023-04-06T03:09:23;13.25;;;9.05;;
40314;SDS011;26021;45.640;11.302;2023-04-06T03:11:48;11.63;;;9.02;;
40314;SDS011;26021;45.640;11.302;2023-04-06T03:14:14;15.35;;;9.48;;
40314;SDS011;26021;45.640;11.302;2023-04-06T03:16:39;13.10;;;9.18;;
40314;SDS011;26021;45.640;11.302;2023-04-06T03:19:05;12.77;;;9.90;;
40314;SDS011;26021;45.640;11.302;2023-04-06T03:21:30;12.52;;;9.38;;
40314;SDS011;26021;45.640;11.302;2023-04-06T03:23:56;11.48;;;9.52;;
40314;SDS011;26021;45.640;11.302;2023-04-06T03:26:21;13.50;;;9.95;;
40314;SDS011;26021;45.640;11.302;2023-04-06T03:28:47;16.38;;;10.20;;
40314;SDS011;26021;45.640;11.302;2023-04-06T03:31:12;12.18;;;9.32;;
40314;SDS011;26021;45.640;11.302;2023-04-06T03:33:38;13.63;;;9.48;;
40314;SDS011;26021;45.640;11.302;2023-04-06T03:36:03;13.25;;;10.30;;
40314;SDS011;26021;45.640;11.302;2023-04-06T03:38:29;11.85;;;9.77;;
40314;SDS011;26021;45.640;11.302;2023-04-06T03:40:55;13.27;;;9.52;;
40314;SDS011;26021;45.640;11.302;2023-04-06T03:43:20;12.27;;;8.80;;
40314;SDS011;26021;45.640;11.302;2023-04-06T03:45:45;12.40;;;9.02;;
40314;SDS011;26021;45.640;11.302;2023-04-06T03:48:11;12.68;;;9.60;;
40314;SDS011;26021;45.640;11.302;2023-04-06T03:50:36;12.10;;;9.77;;
40314;SDS011;26021;45.640;11.302;2023-04-06T03:53:02;14.32;;;10.10;;
40314;SDS011;26021;45.640;11.302;2023-04-06T03:55:30;12.07;;;9.38;;
40314;SDS011;26021;45.640;11.302;2023-04-06T03:57:55;15.48;;;9.40;;
40314;SDS011;26021;45.640;11.302;2023-04-06T04:00:21;10.63;;;8.30;;
40314;SDS011;26021;45.640;11.302;2023-04-06T04:02:46;15.27;;;9.98;;
40314;SDS011;26021;45.640;11.302;2023-04-06T04:05:12;13.63;;;9.35;;
40314;SDS011;26021;45.640;11.302;2023-04-06T04:07:37;13.43;;;10.18;;
40314;SDS011;26021;45.640;11.302;2023-04-06T04:10:03;13.45;;;9.98;;
40314;SDS011;26021;45.640;11.302;2023-04-06T04:12:29;13.68;;;9.77;;
40314;SDS011;26021;45.640;11.302;2023-04-06T04:14:54;13.75;;;9.27;;
40314;SDS011;26021;45.640;11.302;2023-04-06T04:17:21;12.82;;;9.98;;
40314;SDS011;26021;45.640;11.302;2023-04-06T04:19:47;14.57;;;10.20;;
40314;SDS011;26021;45.640;11.302;2023-04-06T04:22:12;11.85;;;9.68;;
40314;SDS011;26021;45.640;11.302;2023-04-06T04:24:37;16.80;;;11.43;;
40314;SDS011;26021;45.640;11.302;2023-04-06T04:27:03;16.67;;;10.45;;
40314;SDS011;26021;45.640;11.302;2023-04-06T04:29:29;11.82;;;9.13;;
40314;SDS011;26021;45.640;11.302;2023-04-06T04:31:55;16.52;;;11.70;;
40314;SDS011;26021;45.640;11.302;2023-04-06T04:34:20;17.58;;;12.32;;
40314;SDS011;26021;45.640;11.302;2023-04-06T04:36:48;17.38;;;12.15;;
40314;SDS011;26021;45.640;11.302;2023-04-06T04:39:14;18.65;;;11.57;;
40314;SDS011;26021;45.640;11.302;2023-04-06T04:41:39;18.00;;;12.63;;
40314;SDS011;26021;45.640;11.302;2023-04-06T04:44:05;16.10;;;12.00;;
40314;SDS011;26021;45.640;11.302;2023-04-06T04:46:30;15.25;;;12.48;;
40314;SDS011;26021;45.640;11.302;2023-04-06T04:48:56;16.65;;;11.65;;
40314;SDS011;26021;45.640;11.302;2023-04-06T04:51:21;18.25;;;12.40;;
40314;SDS011;26021;45.640;11.302;2023-04-06T04:53:47;20.23;;;13.48;;
40314;SDS011;26021;45.640;11.302;2023-04-06T04:56:12;15.77;;;12.85;;
40314;SDS011;26021;45.640;11.302;2023-04-06T04:58:37;19.40;;;13.60;;
40314;SDS011;26021;45.640;11.302;2023-04-06T05:01:03;17.15;;;13.45;;
40314;SDS011;26021;45.640;11.302;2023-04-06T05:03:28;19.90;;;12.90;;
40314;SDS011;26021;45.640;11.302;2023-04-06T05:05:54;19.98;;;12.93;;
40314;SDS011;26021;45.640;11.302;2023-04-06T05:08:20;21.33;;;12.82;;
40314;SDS011;26021;45.640;11.302;2023-04-06T05:10:45;17.42;;;12.48;;
40314;SDS011;26021;45.640;11.302;2023-04-06T05:13:11;17.35;;;11.93;;
40314;SDS011;26021;45.640;11.302;2023-04-06T05:15:37;19.70;;;11.70;;
40314;SDS011;26021;45.640;11.302;2023-04-06T05:18:06;13.77;;;10.60;;
40314;SDS011;26021;45.640;11.302;2023-04-06T05:20:33;14.57;;;10.73;;
40314;SDS011;26021;45.640;11.302;2023-04-06T05:22:59;18.45;;;12.40;;
40314;SDS011;26021;45.640;11.302;2023-04-06T05:25:25;15.13;;;11.27;;
40314;SDS011;26021;45.640;11.302;2023-04-06T05:27:50;19.45;;;12.55;;
40314;SDS011;26021;45.640;11.302;2023-04-06T05:30:16;18.02;;;11.90;;
40314;SDS011;26021;45.640;11.302;2023-04-06T05:32:41;16.85;;;11.27;;
40314;SDS011;26021;45.640;11.302;2023-04-06T05:35:09;15.50;;;10.13;;
40314;SDS011;26021;45.640;11.302;2023-04-06T05:37:35;14.10;;;9.52;;
40314;SDS011;26021;45.640;11.302;2023-04-06T05:40:00;13.30;;;8.45;;
40314;SDS011;26021;45.640;11.302;2023-04-06T05:42:26;24.55;;;10.00;;
40314;SDS011;26021;45.640;11.302;2023-04-06T05:44:52;17.00;;;11.95;;
40314;SDS011;26021;45.640;11.302;2023-04-06T05:47:17;15.15;;;11.00;;
40314;SDS011;26021;45.640;11.302;2023-04-06T05:49:43;17.73;;;10.63;;
40314;SDS011;26021;45.640;11.302;2023-04-06T05:52:08;19.10;;;11.40;;
40314;SDS011;26021;45.640;11.302;2023-04-06T05:54:35;15.52;;;11.00;;
40314;SDS011;26021;45.640;11.302;2023-04-06T05:57:01;16.20;;;10.65;;
40314;SDS011;26021;45.640;11.302;2023-04-06T05:59:29;14.10;;;10.15;;
40314;SDS011;26021;45.640;11.302;2023-04-06T06:01:57;13.90;;;10.60;;
40314;SDS011;26021;45.640;11.302;2023-04-06T06:04:23;15.15;;;10.98;;
40314;SDS011;26021;45.640;11.302;2023-04-06T06:06:48;13.38;;;10.07;;
40314;SDS011;26021;45.640;11.302;2023-04-06T06:09:13;11.80;;;9.63;;
40314;SDS011;26021;45.640;11.302;2023-04-06T06:11:39;11.60;;;9.68;;
40314;SDS011;26021;45.640;11.302;2023-04-06T06:14:05;13.52;;;9.90;;
40314;SDS011;26021;45.640;11.302;2023-04-06T06:16:31;14.68;;;10.55;;
40314;SDS011;26021;45.640;11.302;2023-04-06T06:18:56;13.30;;;10.23;;
40314;SDS011;26021;45.640;11.302;2023-04-06T06:21:22;15.23;;;10.90;;
40314;SDS011;26021;45.640;11.302;2023-04-06T06:23:47;12.85;;;10.38;;
40314;SDS011;26021;45.640;11.302;2023-04-06T06:26:14;15.05;;;10.85;;
40314;SDS011;26021;45.640;11.302;2023-04-06T06:28:39;13.32;;;10.93;;
40314;SDS011;26021;45.640;11.302;2023-04-06T06:31:05;13.70;;;10.50;;
40314;SDS011;26021;45.640;11.302;2023-04-06T06:33:30;14.63;;;9.57;;
40314;SDS011;26021;45.640;11.302;2023-04-06T06:35:56;11.95;;;9.40;;
40314;SDS011;26021;45.640;11.302;2023-04-06T06:38:21;13.88;;;10.00;;
40314;SDS011;26021;45.640;11.302;2023-04-06T06:40:47;13.98;;;10.43;;
40314;SDS011;26021;45.640;11.302;2023-04-06T06:43:12;12.75;;;9.10;;
40314;SDS011;26021;45.640;11.302;2023-04-06T06:45:37;11.15;;;8.50;;
40314;SDS011;26021;45.640;11.302;2023-04-06T06:48:03;13.70;;;10.05;;
40314;SDS011;26021;45.640;11.302;2023-04-06T06:50:28;12.85;;;9.10;;
40314;SDS011;26021;45.640;11.302;2023-04-06T06:52:54;15.07;;;9.10;;
40314;SDS011;26021;45.640;11.302;2023-04-06T06:55:19;13.93;;;10.43;;
40314;SDS011;26021;45.640;11.302;2023-04-06T06:57:45;14.07;;;9.27;;
40314;SDS011;26021;45.640;11.302;2023-04-06T07:00:14;16.05;;;9.63;;
40314;SDS011;26021;45.640;11.302;2023-04-06T07:02:40;14.40;;;9.55;;
40314;SDS011;26021;45.640;11.302;2023-04-06T07:05:05;12.38;;;8.93;;
40314;SDS011;26021;45.640;11.302;2023-04-06T07:07:31;11.75;;;9.13;;
40314;SDS011;26021;45.640;11.302;2023-04-06T07:09:58;13.88;;;10.00;;
40314;SDS011;26021;45.640;11.302;2023-04-06T07:12:24;14.23;;;9.60;;
40314;SDS011;26021;45.640;11.302;2023-04-06T07:14:50;12.57;;;8.95;;
40314;SDS011;26021;45.640;11.302;2023-04-06T07:17:15;19.00;;;9.18;;
40314;SDS011;26021;45.640;11.302;2023-04-06T07:19:41;12.05;;;8.52;;
40314;SDS011;26021;45.640;11.302;2023-04-06T07:22:06;12.30;;;7.65;;
40314;SDS011;26021;45.640;11.302;2023-04-06T07:24:31;12.15;;;8.30;;
40314;SDS011;26021;45.640;11.302;2023-04-06T07:26:58;10.27;;;6.80;;
40314;SDS011;26021;45.640;11.302;2023-04-06T07:29:25;11.13;;;7.10;;
40314;SDS011;26021;45.640;11.302;2023-04-06T07:31:52;8.57;;;6.95;;
40314;SDS011;26021;45.640;11.302;2023-04-06T07:34:17;8.55;;;6.70;;
40314;SDS011;26021;45.640;11.302;2023-04-06T07:36:43;11.50;;;6.07;;
40314;SDS011;26021;45.640;11.302;2023-04-06T07:39:09;9.35;;;6.70;;
40314;SDS011;26021;45.640;11.302;2023-04-06T07:41:35;8.95;;;6.63;;
40314;SDS011;26021;45.640;11.302;2023-04-06T07:44:01;8.15;;;6.35;;
40314;SDS011;26021;45.640;11.302;2023-04-06T07:46:26;9.88;;;6.93;;
40314;SDS011;26021;45.640;11.302;2023-04-06T07:48:52;9.60;;;7.07;;
40314;SDS011;26021;45.640;11.302;2023-04-06T07:51:17;8.38;;;6.40;;
40314;SDS011;26021;45.640;11.302;2023-04-06T07:53:45;8.05;;;6.30;;
40314;SDS011;26021;45.640;11.302;2023-04-06T07:56:11;9.70;;;5.95;;
40314;SDS011;26021;45.640;11.302;2023-04-06T07:58:37;9.90;;;6.80;;
40314;SDS011;26021;45.640;11.302;2023-04-06T08:01:03;8.35;;;6.60;;
40314;SDS011;26021;45.640;11.302;2023-04-06T08:03:28;9.95;;;6.95;;
40314;SDS011;26021;45.640;11.302;2023-04-06T08:05:54;8.45;;;6.55;;
40314;SDS011;26021;45.640;11.302;2023-04-06T08:08:20;10.38;;;7.05;;
40314;SDS011;26021;45.640;11.302;2023-04-06T08:10:46;8.30;;;6.70;;
40314;SDS011;26021;45.640;11.302;2023-04-06T08:13:13;12.35;;;7.13;;
40314;SDS011;26021;45.640;11.302;2023-04-06T08:15:39;9.95;;;7.15;;
40314;SDS011;26021;45.640;11.302;2023-04-06T08:18:05;10.98;;;7.28;;
40314;SDS011;26021;45.640;11.302;2023-04-06T08:20:30;11.88;;;7.72;;
40314;SDS011;26021;45.640;11.302;2023-04-06T08:22:56;10.10;;;7.35;;
40314;SDS011;26021;45.640;11.302;2023-04-06T08:25:21;9.95;;;7.32;;
40314;SDS011;26021;45.640;11.302;2023-04-06T08:27:47;9.73;;;7.53;;
40314;SDS011;26021;45.640;11.302;2023-04-06T08:30:13;13.02;;;8.27;;
40314;SDS011;26021;45.640;11.302;2023-04-06T08:32:40;14.60;;;8.15;;
40314;SDS011;26021;45.640;11.302;2023-04-06T08:35:06;12.40;;;7.97;;
40314;SDS011;26021;45.640;11.302;2023-04-06T08:37:32;11.55;;;7.85;;
40314;SDS011;26021;45.640;11.302;2023-04-06T08:39:58;14.60;;;7.63;;
40314;SDS011;26021;45.640;11.302;2023-04-06T08:42:24;12.23;;;7.70;;
40314;SDS011;26021;45.640;11.302;2023-04-06T08:44:51;10.65;;;7.40;;
40314;SDS011;26021;45.640;11.302;2023-04-06T08:47:17;12.25;;;8.13;;
40314;SDS011;26021;45.640;11.302;2023-04-06T08:49:44;10.88;;;7.25;;
40314;SDS011;26021;45.640;11.302;2023-04-06T08:52:10;11.88;;;8.00;;
40314;SDS011;26021;45.640;11.302;2023-04-06T08:54:36;10.65;;;7.78;;
40314;SDS011;26021;45.640;11.302;2023-04-06T08:57:02;9.15;;;7.72;;
40314;SDS011;26021;45.640;11.302;2023-04-06T08:59:29;12.07;;;7.90;;
40314;SDS011;26021;45.640;11.302;2023-04-06T09:01:55;10.57;;;7.60;;
40314;SDS011;26021;45.640;11.302;2023-04-06T09:04:21;10.63;;;8.25;;
40314;SDS011;26021;45.640;11.302;2023-04-06T09:06:47;12.45;;;7.88;;
40314;SDS011;26021;45.640;11.302;2023-04-06T09:09:12;12.23;;;8.13;;
40314;SDS011;26021;45.640;11.302;2023-04-06T09:11:42;15.75;;;8.55;;
40314;SDS011;26021;45.640;11.302;2023-04-06T09:14:08;12.10;;;8.40;;
40314;SDS011;26021;45.640;11.302;2023-04-06T09:16:41;9.73;;;7.80;;
40314;SDS011;26021;45.640;11.302;2023-04-06T09:19:07;9.82;;;8.68;;
40314;SDS011;26021;45.640;11.302;2023-04-06T09:21:33;15.02;;;8.30;;
40314;SDS011;26021;45.640;11.302;2023-04-06T09:24:00;10.88;;;8.63;;
40314;SDS011;26021;45.640;11.302;2023-04-06T09:26:26;12.73;;;8.90;;
40314;SDS011;26021;45.640;11.302;2023-04-06T09:28:55;14.07;;;8.63;;
40314;SDS011;26021;45.640;11.302;2023-04-06T09:31:28;13.90;;;8.30;;
40314;SDS011;26021;45.640;11.302;2023-04-06T09:34:00;15.05;;;9.40;;
40314;SDS011;26021;45.640;11.302;2023-04-06T09:36:30;12.70;;;8.60;;
40314;SDS011;26021;45.640;11.302;2023-04-06T09:38:58;11.40;;;8.20;;
40314;SDS011;26021;45.640;11.302;2023-04-06T09:41:25;12.55;;;8.38;;
40314;SDS011;26021;45.640;11.302;2023-04-06T09:43:51;14.07;;;8.82;;
40314;SDS011;26021;45.640;11.302;2023-04-06T09:46:17;9.25;;;8.20;;
40314;SDS011;26021;45.640;11.302;2023-04-06T09:48:46;10.40;;;8.27;;
40314;SDS011;26021;45.640;11.302;2023-04-06T09:51:12;10.75;;;8.75;;
40314;SDS011;26021;45.640;11.302;2023-04-06T09:53:41;12.10;;;9.10;;
40314;SDS011;26021;45.640;11.302;2023-04-06T09:56:11;9.85;;;8.20;;
40314;SDS011;26021;45.640;11.302;2023-04-06T09:58:41;11.40;;;8.82;;
40314;SDS011;26021;45.640;11.302;2023-04-06T10:01:12;14.52;;;9.32;;
40314;SDS011;26021;45.640;11.302;2023-04-06T10:06:17;12.00;;;8.70;;
40314;SDS011;26021;45.640;11.302;2023-04-06T10:08:47;14.10;;;9.05;;
40314;SDS011;26021;45.640;11.302;2023-04-06T10:11:16;12.30;;;9.73;;
40314;SDS011;26021;45.640;11.302;2023-04-06T10:13:43;15.90;;;9.43;;
40314;SDS011;26021;45.640;11.302;2023-04-06T10:16:12;12.63;;;9.70;;
40314;SDS011;26021;45.640;11.302;2023-04-06T10:18:39;17.90;;;9.98;;
40314;SDS011;26021;45.640;11.302;2023-04-06T10:21:11;14.70;;;9.55;;
40314;SDS011;26021;45.640;11.302;2023-04-06T10:23:48;13.20;;;9.50;;
40314;SDS011;26021;45.640;11.302;2023-04-06T10:26:17;14.07;;;9.90;;
40314;SDS011;26021;45.640;11.302;2023-04-06T10:28:46;19.42;;;9.40;;
40314;SDS011;26021;45.640;11.302;2023-04-06T10:31:13;12.13;;;9.63;;
40314;SDS011;26021;45.640;11.302;2023-04-06T10:33:38;14.70;;;10.45;;
40314;SDS011;26021;45.640;11.302;2023-04-06T10:38:41;15.13;;;10.75;;
40314;SDS011;26021;45.640;11.302;2023-04-06T10:41:08;13.93;;;10.73;;
40314;SDS011;26021;45.640;11.302;2023-04-06T10:43:35;15.30;;;10.13;;
40314;SDS011;26021;45.640;11.302;2023-04-06T10:46:04;15.05;;;10.25;;
40314;SDS011;26021;45.640;11.302;2023-04-06T10:51:06;15.45;;;11.35;;
40314;SDS011;26021;45.640;11.302;2023-04-06T10:53:33;13.85;;;9.15;;
40314;SDS011;26021;45.640;11.302;2023-04-06T10:55:59;14.95;;;10.77;;
40314;SDS011;26021;45.640;11.302;2023-04-06T10:58:25;15.85;;;10.27;;
40314;SDS011;26021;45.640;11.302;2023-04-06T11:00:51;11.48;;;9.45;;
40314;SDS011;26021;45.640;11.302;2023-04-06T11:03:18;12.63;;;9.55;;
40314;SDS011;26021;45.640;11.302;2023-04-06T11:05:44;10.57;;;9.32;;
40314;SDS011;26021;45.640;11.302;2023-04-06T11:08:10;14.63;;;9.45;;
40314;SDS011;26021;45.640;11.302;2023-04-06T11:10:47;11.70;;;9.45;;
40314;SDS011;26021;45.640;11.302;2023-04-06T11:13:14;13.05;;;9.85;;
40314;SDS011;26021;45.640;11.302;2023-04-06T11:15:39;14.80;;;9.98;;
40314;SDS011;26021;45.640;11.302;2023-04-06T11:18:05;13.15;;;8.73;;
40314;SDS011;26021;45.640;11.302;2023-04-06T11:20:30;12.02;;;9.07;;
40314;SDS011;26021;45.640;11.302;2023-04-06T11:22:56;14.40;;;9.57;;
40314;SDS011;26021;45.640;11.302;2023-04-06T11:25:23;10.65;;;9.30;;
40314;SDS011;26021;45.640;11.302;2023-04-06T11:27:49;13.05;;;9.40;;
40314;SDS011;26021;45.640;11.302;2023-04-06T11:30:15;11.80;;;9.35;;
40314;SDS011;26021;45.640;11.302;2023-04-06T11:32:44;13.93;;;9.88;;
40314;SDS011;26021;45.640;11.302;2023-04-06T11:35:11;13.20;;;9.82;;
40314;SDS011;26021;45.640;11.302;2023-04-06T11:37:44;13.27;;;9.85;;
40314;SDS011;26021;45.640;11.302;2023-04-06T11:40:10;14.93;;;10.02;;
40314;SDS011;26021;45.640;11.302;2023-04-06T11:42:35;11.73;;;9.65;;
40314;SDS011;26021;45.640;11.302;2023-04-06T11:45:01;15.38;;;10.32;;
40314;SDS011;26021;45.640;11.302;2023-04-06T11:47:27;13.07;;;9.90;;
40314;SDS011;26021;45.640;11.302;2023-04-06T11:50:05;13.65;;;10.43;;
40314;SDS011;26021;45.640;11.302;2023-04-06T11:53:00;16.15;;;10.10;;
40314;SDS011;26021;45.640;11.302;2023-04-06T11:55:28;15.65;;;11.10;;
40314;SDS011;26021;45.640;11.302;2023-04-06T11:57:53;15.52;;;10.48;;
40314;SDS011;26021;45.640;11.302;2023-04-06T12:00:20;16.95;;;10.60;;
40314;SDS011;26021;45.640;11.302;2023-04-06T12:02:46;16.08;;;10.02;;
40314;SDS011;26021;45.640;11.302;2023-04-06T12:05:12;15.90;;;10.73;;
40314;SDS011;26021;45.640;11.302;2023-04-06T12:07:38;13.30;;;10.25;;
40314;SDS011;26021;45.640;11.302;2023-04-06T12:10:04;17.38;;;9.43;;
40314;SDS011;26021;45.640;11.302;2023-04-06T12:12:30;13.05;;;10.27;;
40314;SDS011;26021;45.640;11.302;2023-04-06T12:14:56;12.00;;;9.73;;
40314;SDS011;26021;45.640;11.302;2023-04-06T12:17:21;15.90;;;10.48;;
40314;SDS011;26021;45.640;11.302;2023-04-06T12:19:48;16.52;;;11.00;;
40314;SDS011;26021;45.640;11.302;2023-04-06T12:22:13;12.65;;;9.48;;
40314;SDS011;26021;45.640;11.302;2023-04-06T12:24:39;11.32;;;9.90;;
40314;SDS011;26021;45.640;11.302;2023-04-06T12:27:04;11.98;;;10.10;;
40314;SDS011;26021;45.640;11.302;2023-04-06T12:29:30;13.73;;;9.95;;
40314;SDS011;26021;45.640;11.302;2023-04-06T12:31:55;14.50;;;10.35;;
40314;SDS011;26021;45.640;11.302;2023-04-06T12:34:21;15.23;;;10.30;;
40314;SDS011;26021;45.640;11.302;2023-04-06T12:36:46;13.27;;;10.57;;
40314;SDS011;26021;45.640;11.302;2023-04-06T12:39:12;20.25;;;10.90;;
40314;SDS011;26021;45.640;11.302;2023-04-06T12:41:37;16.10;;;10.18;;
40314;SDS011;26021;45.640;11.302;2023-04-06T12:44:06;16.33;;;10.32;;
40314;SDS011;26021;45.640;11.302;2023-04-06T12:46:31;11.85;;;10.30;;
40314;SDS011;26021;45.640;11.302;2023-04-06T12:48:57;15.15;;;9.98;;
40314;SDS011;26021;45.640;11.302;2023-04-06T12:51:24;12.95;;;10.80;;
40314;SDS011;26021;45.640;11.302;2023-04-06T12:53:50;12.90;;;10.15;;
40314;SDS011;26021;45.640;11.302;2023-04-06T12:56:16;17.23;;;11.25;;
40314;SDS011;26021;45.640;11.302;2023-04-06T12:58:42;15.68;;;12.18;;
40314;SDS011;26021;45.640;11.302;2023-04-06T13:01:09;14.35;;;10.70;;
40314;SDS011;26021;45.640;11.302;2023-04-06T13:03:35;13.98;;;11.18;;
40314;SDS011;26021;45.640;11.302;2023-04-06T13:06:01;15.88;;;11.68;;
40314;SDS011;26021;45.640;11.302;2023-04-06T13:08:26;17.67;;;11.20;;
40314;SDS011;26021;45.640;11.302;2023-04-06T13:10:52;13.57;;;10.68;;
40314;SDS011;26021;45.640;11.302;2023-04-06T13:13:25;12.80;;;11.15;;
40314;SDS011;26021;45.640;11.302;2023-04-06T13:15:53;14.68;;;11.77;;
40314;SDS011;26021;45.640;11.302;2023-04-06T13:18:23;13.77;;;11.82;;
40314;SDS011;26021;45.640;11.302;2023-04-06T13:20:48;12.85;;;11.30;;
40314;SDS011;26021;45.640;11.302;2023-04-06T13:23:14;14.45;;;11.82;;
40314;SDS011;26021;45.640;11.302;2023-04-06T13:25:40;15.65;;;11.73;;
40314;SDS011;26021;45.640;11.302;2023-04-06T13:28:05;16.48;;;12.35;;
40314;SDS011;26021;45.640;11.302;2023-04-06T13:30:31;15.45;;;11.55;;
40314;SDS011;26021;45.640;11.302;2023-04-06T13:32:56;16.60;;;10.68;;
40314;SDS011;26021;45.640;11.302;2023-04-06T13:35:22;16.17;;;10.85;;
40314;SDS011;26021;45.640;11.302;2023-04-06T13:37:47;15.65;;;11.50;;
40314;SDS011;26021;45.640;11.302;2023-04-06T13:40:14;13.30;;;11.27;;
40314;SDS011;26021;45.640;11.302;2023-04-06T13:42:39;15.43;;;11.88;;
40314;SDS011;26021;45.640;11.302;2023-04-06T13:45:06;14.65;;;11.65;;
40314;SDS011;26021;45.640;11.302;2023-04-06T13:47:31;16.63;;;11.05;;
40314;SDS011;26021;45.640;11.302;2023-04-06T13:49:57;17.20;;;11.30;;
40314;SDS011;26021;45.640;11.302;2023-04-06T13:52:23;15.40;;;11.15;;
40314;SDS011;26021;45.640;11.302;2023-04-06T13:54:49;13.15;;;11.55;;
40314;SDS011;26021;45.640;11.302;2023-04-06T13:57:15;17.52;;;12.13;;
40314;SDS011;26021;45.640;11.302;2023-04-06T13:59:40;18.35;;;11.43;;
40314;SDS011;26021;45.640;11.302;2023-04-06T14:02:07;13.57;;;11.10;;
40314;SDS011;26021;45.640;11.302;2023-04-06T14:04:33;18.35;;;11.45;;
40314;SDS011;26021;45.640;11.302;2023-04-06T14:06:59;16.88;;;12.80;;
40314;SDS011;26021;45.640;11.302;2023-04-06T14:09:26;15.15;;;12.50;;
40314;SDS011;26021;45.640;11.302;2023-04-06T14:11:51;15.15;;;11.20;;
40314;SDS011;26021;45.640;11.302;2023-04-06T14:14:17;14.27;;;11.25;;
40314;SDS011;26021;45.640;11.302;2023-04-06T14:16:43;17.30;;;11.73;;
40314;SDS011;26021;45.640;11.302;2023-04-06T14:19:12;13.35;;;11.02;;
40314;SDS011;26021;45.640;11.302;2023-04-06T14:21:40;14.45;;;11.38;;